Athelstane, Wisconsin
Current Conditions -  °F | °C
As of 12:54 AM on Sunday 26 Oct 2014 (Local Time) from KIMT Reporting Station
Clear Clear  
Wind Chill:   Ceiling: Unl
Heat Index:   Visibility: 10mi
Dew Point: -3°   Wind: 12mph
Humidity: 47%   Direction: 310°NW
Pressure: 29.88"   Gusts: NA
Location:  45.42°N, 88.1°W
Report Text: KIMT 260554Z AUTO 31010KT 10SM CLR 08/M03 A2988 RMK AO2 SLP124 T00781028 10122 20078 401610078 51010
Loading
Personal Weather Stations






























Interactive Weather Map
Tropical Storm Tracking
New forecast layout! Learn more

10-Day Weather Forecast

Advertisements
Track Severe Weather on mobile